createdAt,value
2022-10-17T00:01:11.453Z,101477.70
2022-10-17T00:03:40.888Z,101482.47
2022-10-17T00:06:14.304Z,101489.38
2022-10-17T00:08:44.452Z,101490.45
2022-10-17T00:11:19.260Z,101496.28
2022-10-17T00:13:49.391Z,101497.98
2022-10-17T00:16:29.392Z,101498.15
2022-10-17T00:18:58.068Z,101489.73
2022-10-17T00:21:26.615Z,101485.17
2022-10-17T00:23:55.511Z,101483.09
2022-10-17T00:26:24.066Z,101484.23
2022-10-17T00:28:53.037Z,101485.35
2022-10-17T00:31:22.989Z,101491.45
2022-10-17T00:33:52.157Z,101493.42
2022-10-17T00:36:25.626Z,101495.09
2022-10-17T00:38:58.357Z,101497.94
2022-10-17T00:41:30.528Z,101501.27
2022-10-17T00:44:01.073Z,101501.72
2022-10-17T00:46:39.501Z,101500.09
2022-10-17T00:49:12.684Z,101503.88
2022-10-17T00:51:47.420Z,101499.38
2022-10-17T00:54:19.553Z,101504.95
2022-10-17T00:56:48.751Z,101506.14
2022-10-17T00:59:19.106Z,101507.18
2022-10-17T01:01:57.173Z,101501.51
2022-10-17T01:04:27.995Z,101508.96
2022-10-17T01:06:56.114Z,101506.78
2022-10-17T01:09:25.464Z,101503.87
2022-10-17T01:12:31.194Z,101500.47
2022-10-17T01:15:11.722Z,101501.59
2022-10-17T01:17:48.268Z,101497.59
2022-10-17T01:20:54.163Z,101496.60
2022-10-17T01:24:00.333Z,101499.88
2022-10-17T01:26:53.335Z,101487.45
2022-10-17T01:29:40.332Z,101488.85
2022-10-17T01:32:15.242Z,101488.52
2022-10-17T01:34:57.955Z,101485.39
2022-10-17T01:37:36.091Z,101481.38
2022-10-17T01:40:38.486Z,101481.42
2022-10-17T01:43:26.827Z,101487.62
2022-10-17T01:46:10.359Z,101498.64
2022-10-17T01:48:43.970Z,101504.87
2022-10-17T01:51:27.711Z,101508.98
2022-10-17T01:54:13.706Z,101508.89
2022-10-17T01:56:44.171Z,101509.96
2022-10-17T01:59:25.846Z,101510.17
2022-10-17T02:01:56.445Z,101509.02
2022-10-17T02:04:26.297Z,101507.15
2022-10-17T02:06:54.152Z,101503.69
2022-10-17T02:09:25.100Z,101507.52
2022-10-17T02:12:27.964Z,101514.17
2022-10-17T02:15:15.276Z,101510.09
2022-10-17T02:18:11.515Z,101508.84
2022-10-17T02:20:55.108Z,101504.95
2022-10-17T02:23:29.244Z,101508.20
2022-10-17T02:26:46.578Z,101512.73
2022-10-17T02:29:22.039Z,101513.98
2022-10-17T02:31:55.477Z,101518.79
2022-10-17T02:34:31.888Z,101520.11
2022-10-17T02:37:05.549Z,101528.50
2022-10-17T02:39:35.809Z,101514.69
2022-10-17T02:42:07.494Z,101537.21
2022-10-17T02:44:38.573Z,101542.54
2022-10-17T02:47:18.977Z,101543.98
2022-10-17T02:49:52.867Z,101539.36
2022-10-17T02:52:30.226Z,101543.23
2022-10-17T02:55:06.530Z,101546.77
2022-10-17T02:57:42.127Z,101547.10
2022-10-17T03:00:14.528Z,101556.82
2022-10-17T03:02:52.719Z,101562.28
2022-10-17T03:05:26.795Z,101569.20
2022-10-17T03:07:56.302Z,101575.66
2022-10-17T03:10:25.711Z,101579.19
2022-10-17T03:12:54.560Z,101582.05
2022-10-17T03:15:22.526Z,101579.45
2022-10-17T03:17:50.760Z,101590.06
2022-10-17T03:20:19.307Z,101588.03
2022-10-17T03:22:47.397Z,101585.66
2022-10-17T03:25:21.975Z,101582.38
2022-10-17T03:27:50.632Z,101582.98
2022-10-17T03:30:19.077Z,101576.48
2022-10-17T03:32:47.503Z,101575.32
2022-10-17T03:35:15.592Z,101573.11
2022-10-17T03:37:45.767Z,101574.95
2022-10-17T03:40:13.951Z,101578.60
2022-10-17T03:42:42.024Z,101573.61
2022-10-17T03:45:10.363Z,101568.80
2022-10-17T03:47:38.549Z,101569.33
2022-10-17T03:50:07.584Z,101567.73
2022-10-17T03:52:36.788Z,101566.84
2022-10-17T03:55:05.468Z,101570.42
2022-10-17T03:57:36.995Z,101575.69
2022-10-17T04:00:06.634Z,101582.10
2022-10-17T04:02:42.463Z,101566.99
2022-10-17T04:05:13.818Z,101591.08
2022-10-17T04:07:42.336Z,101588.32
2022-10-17T04:10:11.404Z,101594.61
2022-10-17T04:12:39.573Z,101591.02
2022-10-17T04:15:08.368Z,101597.15
2022-10-17T04:17:38.353Z,101601.61
2022-10-17T04:20:07.896Z,101607.80
2022-10-17T04:22:36.224Z,101609.77
2022-10-17T04:25:04.548Z,101609.23
2022-10-17T04:27:37.754Z,101611.39
2022-10-17T04:30:07.838Z,101603.84
2022-10-17T04:32:38.330Z,101606.13
2022-10-17T04:35:29.183Z,101606.37
2022-10-17T04:38:02.268Z,101608.41
2022-10-17T04:40:30.760Z,101603.89
2022-10-17T04:43:00.368Z,101603.79
2022-10-17T04:45:34.789Z,101601.34
2022-10-17T04:48:03.847Z,101608.17
2022-10-17T04:50:32.346Z,101616.13
2022-10-17T04:53:15.317Z,101611.42
2022-10-17T04:55:43.210Z,101615.45
2022-10-17T04:58:11.214Z,101624.60
2022-10-17T05:00:39.710Z,101623.13
2022-10-17T05:03:23.021Z,101629.80
2022-10-17T05:05:51.812Z,101637.67
2022-10-17T05:08:19.799Z,101640.73
2022-10-17T05:10:47.811Z,101638.14
2022-10-17T05:13:16.177Z,101646.05
2022-10-17T05:15:44.111Z,101645.69
2022-10-17T05:18:12.894Z,101643.63
2022-10-17T05:20:42.885Z,101647.04
2022-10-17T05:23:11.282Z,101651.34
2022-10-17T05:25:41.572Z,101656.55
2022-10-17T05:28:09.677Z,101652.20
2022-10-17T05:30:41.529Z,101655.80
2022-10-17T05:33:09.932Z,101663.10
2022-10-17T05:35:37.993Z,101671.61
2022-10-17T05:38:06.817Z,101678.74
2022-10-17T05:40:35.432Z,101686.09
2022-10-17T05:43:03.797Z,101698.00
2022-10-17T05:45:32.392Z,101700.62
2022-10-17T05:48:01.118Z,101689.12
2022-10-17T05:50:29.465Z,101692.00
2022-10-17T05:53:04.299Z,101689.21
2022-10-17T05:55:34.008Z,101685.77
2022-10-17T05:58:02.219Z,101668.42
2022-10-17T06:00:33.422Z,101673.57
2022-10-17T06:03:01.728Z,101674.48
2022-10-17T06:05:29.647Z,101680.33
2022-10-17T06:08:01.133Z,101687.28
2022-10-17T06:10:32.329Z,101694.33
2022-10-17T06:13:01.380Z,101701.84
2022-10-17T06:15:29.208Z,101704.79
2022-10-17T06:18:03.364Z,101711.58
2022-10-17T06:20:31.837Z,101711.92
2022-10-17T06:23:00.691Z,101712.77
2022-10-17T06:25:47.239Z,101719.42
2022-10-17T06:28:15.866Z,101720.70
2022-10-17T06:30:48.531Z,101718.54
2022-10-17T06:33:23.596Z,101698.13
2022-10-17T06:35:53.502Z,101720.16
2022-10-17T06:38:23.452Z,101720.61
2022-10-17T06:40:54.669Z,101727.12
2022-10-17T06:43:27.846Z,101731.02
2022-10-17T06:46:19.990Z,101740.59
2022-10-17T06:49:00.221Z,101744.19
2022-10-17T06:51:41.800Z,101744.39
2022-10-17T06:54:11.455Z,101743.38
2022-10-17T06:56:52.705Z,101739.84
2022-10-17T06:59:39.252Z,101740.08
2022-10-17T07:02:13.442Z,101739.98
2022-10-17T07:04:41.476Z,101740.40
2022-10-17T07:07:09.728Z,101743.46
2022-10-17T07:09:38.755Z,101749.70
2022-10-17T07:12:08.157Z,101736.20
2022-10-17T07:14:36.550Z,101758.13
2022-10-17T07:17:06.149Z,101754.59
2022-10-17T07:19:34.853Z,101751.78
2022-10-17T07:22:02.895Z,101746.48
2022-10-17T07:24:32.249Z,101748.66
2022-10-17T07:27:13.760Z,101744.06
2022-10-17T07:29:42.154Z,101743.45
2022-10-17T07:32:13.405Z,101734.64
2022-10-17T07:34:41.327Z,101733.71
2022-10-17T07:37:12.010Z,101736.38
2022-10-17T07:39:42.680Z,101745.21
2022-10-17T07:42:10.913Z,101744.80
2022-10-17T07:44:39.223Z,101739.11
2022-10-17T07:47:07.598Z,101758.63
2022-10-17T07:49:42.806Z,101766.75
2022-10-17T07:52:12.589Z,101747.27
2022-10-17T07:54:41.419Z,101767.94
2022-10-17T07:57:10.616Z,101771.73
2022-10-17T07:59:38.804Z,101772.62
2022-10-17T08:02:08.241Z,101780.92
2022-10-17T08:04:36.706Z,101777.37
2022-10-17T08:07:19.569Z,101773.48
2022-10-17T08:09:50.193Z,101775.02
2022-10-17T08:12:18.472Z,101780.56
2022-10-17T08:14:46.776Z,101783.35
2022-10-17T08:17:15.013Z,101787.80
2022-10-17T08:19:43.013Z,101791.17
2022-10-17T08:22:10.941Z,101790.15
2022-10-17T08:24:39.194Z,101777.60
2022-10-17T08:27:11.642Z,101791.66
2022-10-17T08:29:41.003Z,101776.94
2022-10-17T08:32:10.335Z,101792.23
2022-10-17T08:34:38.522Z,101787.91
2022-10-17T08:37:06.610Z,101782.15
2022-10-17T08:39:34.861Z,101779.45
2022-10-17T08:42:26.082Z,101778.77
2022-10-17T08:45:25.107Z,101780.49
2022-10-17T08:47:58.707Z,101774.70
2022-10-17T08:50:29.720Z,101777.59
2022-10-17T08:53:04.808Z,101773.15
2022-10-17T08:55:45.321Z,101769.99
2022-10-17T08:58:25.274Z,101769.08
2022-10-17T09:01:24.268Z,101765.49
2022-10-17T09:04:11.220Z,101763.07
2022-10-17T09:06:55.022Z,101761.67
2022-10-17T09:09:22.999Z,101762.19
2022-10-17T09:12:12.772Z,101763.58
2022-10-17T09:14:49.829Z,101764.77
2022-10-17T09:17:42.800Z,101766.48
2022-10-17T09:20:26.654Z,101765.27
2022-10-17T09:22:57.913Z,101766.63
2022-10-17T09:25:27.813Z,101761.11
2022-10-17T09:28:25.171Z,101759.00
2022-10-17T09:31:06.110Z,101751.30
2022-10-17T09:33:58.960Z,101750.89
2022-10-17T09:36:36.773Z,101755.96
2022-10-17T09:39:06.298Z,101756.52
2022-10-17T09:41:46.787Z,101759.86
2022-10-17T09:44:20.791Z,101754.88
2022-10-17T09:47:06.757Z,101750.67
2022-10-17T09:49:37.918Z,101744.79
2022-10-17T09:52:18.062Z,101744.73
2022-10-17T09:54:50.706Z,101741.33
2022-10-17T09:57:21.564Z,101738.26
2022-10-17T09:59:59.237Z,101733.96
2022-10-17T10:02:30.298Z,101730.68
2022-10-17T10:05:06.946Z,101730.99
2022-10-17T10:07:38.801Z,101730.80
2022-10-17T10:10:26.241Z,101729.05
2022-10-17T10:13:06.252Z,101730.86
2022-10-17T10:15:41.560Z,101726.16
2022-10-17T10:18:25.662Z,101727.73
2022-10-17T10:21:06.368Z,101725.61
2022-10-17T10:23:40.621Z,101722.34
2022-10-17T10:26:25.903Z,101728.36
2022-10-17T10:29:08.098Z,101726.77
2022-10-17T10:31:39.768Z,101711.84
2022-10-17T10:34:36.163Z,101724.12
2022-10-17T10:37:16.971Z,101719.48
2022-10-17T10:39:51.528Z,101716.83
2022-10-17T10:42:31.383Z,101711.14
2022-10-17T10:45:29.261Z,101707.79
2022-10-17T10:48:27.075Z,101709.29
2022-10-17T10:51:06.640Z,101709.61
2022-10-17T10:53:43.761Z,101710.35
2022-10-17T10:56:36.642Z,101713.17
2022-10-17T10:59:19.180Z,101713.80
2022-10-17T11:02:25.965Z,101713.79
2022-10-17T11:05:03.077Z,101718.05
2022-10-17T11:07:40.719Z,101715.14
2022-10-17T11:10:36.912Z,101711.41
2022-10-17T11:13:18.099Z,101714.50
2022-10-17T11:15:59.125Z,101712.31
2022-10-17T11:18:35.516Z,101713.71
2022-10-17T11:21:21.131Z,101714.09
2022-10-17T11:24:00.435Z,101713.14
2022-10-17T11:26:32.536Z,101715.27
2022-10-17T11:29:04.268Z,101714.32
2022-10-17T11:31:36.607Z,101711.85
2022-10-17T11:34:12.224Z,101713.52
2022-10-17T11:36:45.538Z,101708.54
2022-10-17T11:39:22.687Z,101707.98
2022-10-17T11:42:06.833Z,101708.02
2022-10-17T11:44:37.453Z,101710.80
2022-10-17T11:47:19.361Z,101711.29
2022-10-17T11:49:58.525Z,101709.42
2022-10-17T11:52:56.792Z,101710.04
2022-10-17T11:55:30.488Z,101713.88
2022-10-17T11:58:24.758Z,101718.11
2022-10-17T12:01:29.132Z,101723.06
2022-10-17T12:04:17.606Z,101729.45
2022-10-17T12:07:07.352Z,101728.36
2022-10-17T12:09:46.072Z,101725.34
2022-10-17T12:12:38.360Z,101722.71
2022-10-17T12:15:25.649Z,101721.16
2022-10-17T12:18:02.635Z,101717.87
2022-10-17T12:20:33.557Z,101714.73
2022-10-17T12:23:20.417Z,101709.08
2022-10-17T12:26:04.763Z,101706.65
2022-10-17T12:28:43.251Z,101705.55
2022-10-17T12:31:29.701Z,101703.68
2022-10-17T12:34:05.323Z,101704.42
2022-10-17T12:36:33.551Z,101705.54
2022-10-17T12:39:01.377Z,101704.94
2022-10-17T12:41:38.919Z,101694.16
2022-10-17T12:44:12.985Z,101694.86
2022-10-17T12:46:44.506Z,101691.01
2022-10-17T12:49:53.146Z,101692.02
2022-10-17T12:52:32.972Z,101687.40
2022-10-17T12:55:14.847Z,101687.64
2022-10-17T12:58:08.460Z,101683.80
2022-10-17T13:01:18.898Z,101675.61
2022-10-17T13:03:46.956Z,101689.45
2022-10-17T13:06:21.809Z,101690.95
2022-10-17T13:09:05.299Z,101683.30
2022-10-17T13:11:36.390Z,101684.95
2022-10-17T13:14:19.325Z,101686.93
2022-10-17T13:17:06.031Z,101684.61
2022-10-17T13:19:43.741Z,101678.17
2022-10-17T13:22:17.208Z,101674.28
2022-10-17T13:24:45.462Z,101676.76
2022-10-17T13:27:25.757Z,101676.77
2022-10-17T13:29:56.474Z,101671.50
2022-10-17T13:32:27.431Z,101671.14
2022-10-17T13:35:07.366Z,101673.55
2022-10-17T13:37:36.704Z,101669.70
2022-10-17T13:40:22.947Z,101659.88
2022-10-17T13:42:57.062Z,101654.02
2022-10-17T13:45:37.922Z,101653.67
2022-10-17T13:48:16.947Z,101653.92
2022-10-17T13:50:50.505Z,101651.64
2022-10-17T13:53:26.658Z,101648.55
2022-10-17T13:56:26.356Z,101651.73
2022-10-17T13:58:57.542Z,101651.31
2022-10-17T14:01:28.038Z,101650.80
2022-10-17T14:04:08.290Z,101650.98
2022-10-17T14:06:49.860Z,101641.83
2022-10-17T14:09:26.348Z,101639.68
2022-10-17T14:12:13.031Z,101643.68
2022-10-17T14:15:09.364Z,101638.48
2022-10-17T14:17:38.678Z,101642.25
2022-10-17T14:23:22.016Z,101643.84
2022-10-17T14:26:08.643Z,101643.11
2022-10-17T14:28:36.978Z,101642.74
2022-10-17T14:31:32.947Z,101639.84
2022-10-17T14:34:03.537Z,101635.77
2022-10-17T14:36:36.043Z,101624.83
2022-10-17T14:39:11.818Z,101610.48
2022-10-17T14:41:45.655Z,101635.05
2022-10-17T14:44:32.127Z,101634.73
2022-10-17T14:47:18.631Z,101634.21
2022-10-17T14:50:05.469Z,101634.36
2022-10-17T14:52:38.953Z,101638.98
2022-10-17T14:55:23.239Z,101641.29
2022-10-17T14:57:51.600Z,101641.08
2022-10-17T15:00:21.811Z,101638.98
2022-10-17T15:02:51.915Z,101632.98
2022-10-17T15:05:20.684Z,101631.77
2022-10-17T15:07:49.082Z,101632.45
2022-10-17T15:10:40.179Z,101634.48
2022-10-17T15:13:27.557Z,101636.20
2022-10-17T15:15:57.288Z,101636.05
2022-10-17T15:18:25.275Z,101634.40
2022-10-17T15:21:04.507Z,101634.42
2022-10-17T15:23:34.962Z,101638.13
2022-10-17T15:26:02.895Z,101636.66
2022-10-17T15:28:30.947Z,101632.30
2022-10-17T15:30:59.165Z,101634.18
2022-10-17T15:33:27.233Z,101630.92
2022-10-17T15:35:55.205Z,101627.81
2022-10-17T15:38:23.547Z,101628.57
2022-10-17T15:40:52.179Z,101604.05
2022-10-17T15:43:20.289Z,101617.30
2022-10-17T15:45:48.866Z,101632.33
2022-10-17T15:48:30.114Z,101633.55
2022-10-17T15:50:59.089Z,101621.16
2022-10-17T15:53:27.212Z,101627.13
2022-10-17T15:55:55.318Z,101613.14
2022-10-17T15:58:23.531Z,101622.61
2022-10-17T16:00:51.483Z,101627.98
2022-10-17T16:03:19.615Z,101627.69
2022-10-17T16:05:47.885Z,101625.92
2022-10-17T16:08:15.749Z,101625.90
2022-10-17T16:10:43.713Z,101624.59
2022-10-17T16:13:18.847Z,101622.70
2022-10-17T16:15:46.905Z,101605.70
2022-10-17T16:18:14.905Z,101592.46
2022-10-17T16:20:43.051Z,101623.10
2022-10-17T16:23:14.225Z,101620.84
2022-10-17T16:25:42.681Z,101596.73
2022-10-17T16:28:12.126Z,101613.38
2022-10-17T16:30:45.114Z,101610.70
2022-10-17T16:33:13.463Z,101605.64
2022-10-17T16:35:41.773Z,101606.77
2022-10-17T16:38:09.826Z,101604.85
2022-10-17T16:40:40.179Z,101606.46
2022-10-17T16:43:12.509Z,101601.27
2022-10-17T16:45:41.619Z,101601.52
2022-10-17T16:48:10.523Z,101604.43
2022-10-17T16:50:41.580Z,101602.63
2022-10-17T16:53:10.012Z,101601.55
2022-10-17T16:55:38.538Z,101597.10
2022-10-17T16:58:06.509Z,101600.73
2022-10-17T17:00:34.680Z,101604.87
2022-10-17T17:03:02.659Z,101597.39
2022-10-17T17:05:30.780Z,101599.67
2022-10-17T17:08:00.119Z,101602.29
2022-10-17T17:10:28.380Z,101603.27
2022-10-17T17:12:57.647Z,101603.69
2022-10-17T17:15:25.911Z,101605.10
2022-10-17T17:17:55.764Z,101601.20
2022-10-17T17:20:24.282Z,101589.09
2022-10-17T17:22:52.641Z,101605.76
2022-10-17T17:25:22.630Z,101603.20
2022-10-17T17:27:50.810Z,101605.67
2022-10-17T17:30:18.991Z,101608.59
2022-10-17T17:32:47.540Z,101612.42
2022-10-17T17:35:15.703Z,101612.40
2022-10-17T17:37:43.631Z,101609.53
2022-10-17T17:40:12.279Z,101613.14
2022-10-17T17:42:40.277Z,101613.52
2022-10-17T17:45:12.353Z,101611.43
2022-10-17T17:47:40.679Z,101613.36
2022-10-17T17:50:08.825Z,101615.02
2022-10-17T17:52:37.048Z,101616.52
2022-10-17T17:55:05.330Z,101611.27
2022-10-17T17:57:33.320Z,101609.00
2022-10-17T18:00:02.161Z,101608.30
2022-10-17T18:02:32.734Z,101604.91
2022-10-17T18:05:00.811Z,101604.06
2022-10-17T18:07:28.930Z,101607.75
2022-10-17T18:09:57.150Z,101605.14
2022-10-17T18:12:25.141Z,101604.77
2022-10-17T18:14:53.222Z,101604.10
2022-10-17T18:17:21.256Z,101603.51
2022-10-17T18:19:49.374Z,101601.70
2022-10-17T18:22:17.791Z,101603.27
2022-10-17T18:24:45.879Z,101600.89
2022-10-17T18:27:16.091Z,101599.98
2022-10-17T18:29:48.418Z,101600.59
2022-10-17T18:32:17.102Z,101595.98
2022-10-17T18:34:45.519Z,101596.04
2022-10-17T18:37:13.560Z,101594.27
2022-10-17T18:39:41.720Z,101594.59
2022-10-17T18:42:09.834Z,101589.83
2022-10-17T18:44:37.726Z,101578.83
2022-10-17T18:47:05.784Z,101592.64
2022-10-17T18:49:33.842Z,101591.06
2022-10-17T18:52:01.964Z,101589.23
2022-10-17T18:54:32.433Z,101590.54
2022-10-17T18:57:00.901Z,101592.08
2022-10-17T18:59:29.482Z,101593.77
2022-10-17T19:01:57.908Z,101590.14
2022-10-17T19:04:26.160Z,101587.55
2022-10-17T19:06:54.315Z,101586.58
2022-10-17T19:09:22.481Z,101584.00
2022-10-17T19:11:50.825Z,101579.35
2022-10-17T19:14:19.169Z,101585.83
2022-10-17T19:16:49.545Z,101589.47
2022-10-17T19:19:21.610Z,101587.73
2022-10-17T19:21:50.646Z,101581.72
2022-10-17T19:24:22.792Z,101584.19
2022-10-17T19:26:55.754Z,101581.64
2022-10-17T19:29:27.036Z,101577.95
2022-10-17T19:34:24.269Z,101565.23
2022-10-17T19:36:52.389Z,101562.20
2022-10-17T19:39:23.495Z,101568.43
2022-10-17T19:41:51.752Z,101565.77
2022-10-17T19:44:19.897Z,101550.52
2022-10-17T19:46:49.310Z,101565.64
2022-10-17T19:49:18.205Z,101566.67
2022-10-17T19:51:46.809Z,101565.55
2022-10-17T19:54:18.345Z,101567.21
2022-10-17T19:56:46.918Z,101565.83
2022-10-17T19:59:16.520Z,101566.30
2022-10-17T20:01:45.029Z,101564.42
2022-10-17T20:04:13.827Z,101562.36
2022-10-17T20:06:42.505Z,101558.09
2022-10-17T20:09:15.695Z,101559.52
2022-10-17T20:11:45.750Z,101557.38
2022-10-17T20:14:13.642Z,101554.19
2022-10-17T20:16:42.335Z,101552.75
2022-10-17T20:19:13.132Z,101549.59
2022-10-17T20:21:43.054Z,101551.15
2022-10-17T20:24:14.653Z,101545.79
2022-10-17T20:26:43.542Z,101546.11
2022-10-17T20:29:24.410Z,101539.98
2022-10-17T20:31:52.448Z,101537.63
2022-10-17T20:34:20.524Z,101535.91
2022-10-17T20:36:49.340Z,101531.19
2022-10-17T20:39:18.981Z,101529.75
2022-10-17T20:41:49.514Z,101530.53
2022-10-17T20:44:17.676Z,101530.05
2022-10-17T20:47:00.684Z,101526.34
2022-10-17T20:49:30.903Z,101520.74
2022-10-17T20:52:00.708Z,101507.25
2022-10-17T20:54:29.064Z,101524.02
2022-10-17T20:56:59.846Z,101520.56
2022-10-17T20:59:31.218Z,101518.09
2022-10-17T21:01:59.417Z,101519.80
2022-10-17T21:04:47.022Z,101494.84
2022-10-17T21:07:16.057Z,101513.14
2022-10-17T21:09:45.483Z,101511.94
2022-10-17T21:12:21.889Z,101516.60
2022-10-17T21:15:00.884Z,101510.95
2022-10-17T21:17:29.228Z,101508.79
2022-10-17T21:19:57.349Z,101508.04
2022-10-17T21:22:25.833Z,101506.37
2022-10-17T21:24:54.853Z,101495.79
2022-10-17T21:27:22.834Z,101482.71
2022-10-17T21:29:52.206Z,101499.52
2022-10-17T21:32:32.148Z,101496.66
2022-10-17T21:35:08.553Z,101495.05
2022-10-17T21:37:36.540Z,101492.80
2022-10-17T21:40:04.821Z,101486.88
2022-10-17T21:42:33.480Z,101487.18
2022-10-17T21:45:04.734Z,101491.65
2022-10-17T21:47:41.792Z,101490.10
2022-10-17T21:50:13.667Z,101490.34
2022-10-17T21:52:41.914Z,101483.91
2022-10-17T21:55:10.877Z,101484.98
2022-10-17T21:57:38.982Z,101476.04
2022-10-17T22:00:08.023Z,101478.81
2022-10-17T22:02:40.093Z,101478.70
2022-10-17T22:05:08.712Z,101472.81
2022-10-17T22:07:36.665Z,101471.82
2022-10-17T22:10:05.231Z,101469.92
2022-10-17T22:12:33.687Z,101474.23
2022-10-17T22:15:01.814Z,101472.85
2022-10-17T22:17:30.314Z,101473.30
2022-10-17T22:19:58.736Z,101462.45
2022-10-17T22:22:26.604Z,101476.02
2022-10-17T22:24:54.514Z,101475.01
2022-10-17T22:27:23.804Z,101476.73
2022-10-17T22:29:51.764Z,101476.80
2022-10-17T22:32:22.374Z,101477.77
2022-10-17T22:34:50.880Z,101477.16
2022-10-17T22:37:18.892Z,101474.96
2022-10-17T22:39:46.753Z,101476.02
2022-10-17T22:42:15.205Z,101476.83
2022-10-17T22:44:43.627Z,101476.02
2022-10-17T22:47:11.452Z,101469.55
2022-10-17T22:49:39.609Z,101480.11
2022-10-17T22:52:07.491Z,101480.75
2022-10-17T22:54:35.371Z,101477.98
2022-10-17T22:57:03.617Z,101480.02
2022-10-17T22:59:31.553Z,101476.98
2022-10-17T23:01:59.602Z,101475.05
2022-10-17T23:04:27.827Z,101474.30
2022-10-17T23:06:55.631Z,101476.88
2022-10-17T23:09:23.565Z,101476.22
2022-10-17T23:11:51.824Z,101475.33
2022-10-17T23:14:19.658Z,101474.19
2022-10-17T23:16:47.764Z,101473.98
2022-10-17T23:19:15.820Z,101476.61
2022-10-17T23:21:43.800Z,101463.27
2022-10-17T23:24:11.869Z,101476.52
2022-10-17T23:26:40.078Z,101480.48
2022-10-17T23:29:07.984Z,101474.91
2022-10-17T23:31:36.503Z,101460.15
2022-10-17T23:34:05.479Z,101478.73
2022-10-17T23:36:33.304Z,101482.12
2022-10-17T23:39:01.255Z,101478.80
2022-10-17T23:41:29.425Z,101479.68
2022-10-17T23:43:57.453Z,101483.27
2022-10-17T23:46:25.409Z,101480.69
2022-10-17T23:48:53.621Z,101480.98
2022-10-17T23:51:22.032Z,101485.45
2022-10-17T23:53:50.073Z,101485.52
2022-10-17T23:56:18.745Z,101486.13
2022-10-17T23:58:46.877Z,101482.77
